Terminal Aerodrome Forecast
Issued by NWS

Home | Current Version | Previous Version | Text Only | Print | Product List | Glossary On
Versions: 1 2 3 4 5 6 7 8 9 10 11 12 13 14 15 16
000
FTUS43 KAPX 251408 AAA
TAFAPN
TAF AMD
KAPN 251408Z 2514/2612 17005KT P6SM SCT090
     FM251800 15011KT P6SM SCT040 BKN090
     FM252000 15011G18KT P6SM SCT035 BKN070
     FM260300 16011G19KT P6SM VCSH SCT035 BKN050 WS020/17035KT
     FM260700 17011G19KT 6SM SHRA BR SCT025 OVC040 WS020/17035KT
     FM260900 17010KT 6SM SHRA BR BKN015 OVC025
     FM261100 19008KT 6SM SHRA BR BKN003 OVC025=

USA.gov is the U.S. government's official web portal to all federal, state and local government web resources and services.